createdAt,value
2018-06-30T00:00:59.845Z,16.00
2018-06-30T00:03:36.775Z,15.80
2018-06-30T00:06:08.656Z,15.70
2018-06-30T00:08:40.309Z,15.50
2018-06-30T00:11:12.014Z,15.50
2018-06-30T00:13:43.643Z,15.70
2018-06-30T00:16:15.375Z,15.70
2018-06-30T00:18:47.103Z,15.90
2018-06-30T00:21:18.876Z,15.80
2018-06-30T00:23:50.586Z,15.60
2018-06-30T00:26:22.346Z,15.60
2018-06-30T00:28:54.125Z,15.80
2018-06-30T00:31:25.886Z,15.60
2018-06-30T00:33:57.643Z,15.40
2018-06-30T00:36:29.405Z,15.70
2018-06-30T00:39:01.052Z,15.60
2018-06-30T00:44:07.851Z,15.70
2018-06-30T00:46:39.488Z,15.80
2018-06-30T00:49:11.142Z,15.70
2018-06-30T00:51:42.848Z,15.40
2018-06-30T00:54:14.518Z,15.40
2018-06-30T00:56:46.162Z,15.40
2018-06-30T01:01:48.803Z,15.30
2018-06-30T01:04:20.539Z,15.30
2018-06-30T01:06:52.245Z,15.20
2018-06-30T01:09:24.146Z,15.20
2018-06-30T01:11:55.865Z,15.10
2018-06-30T01:14:27.562Z,15.20
2018-06-30T01:16:59.288Z,15.40
2018-06-30T01:19:31.006Z,15.30
2018-06-30T01:22:02.681Z,15.30
2018-06-30T01:24:34.414Z,15.30
2018-06-30T01:27:06.119Z,15.00
2018-06-30T01:29:37.757Z,14.70
2018-06-30T01:32:09.422Z,14.70
2018-06-30T01:37:12.226Z,15.00
2018-06-30T01:39:43.817Z,14.90
2018-06-30T01:42:15.503Z,15.10
2018-06-30T01:44:47.163Z,14.90
2018-06-30T01:47:18.989Z,15.00
2018-06-30T01:49:50.634Z,14.80
2018-06-30T01:52:22.217Z,14.70
2018-06-30T01:54:53.926Z,14.70
2018-06-30T01:57:25.542Z,15.00
2018-06-30T01:59:57.166Z,15.00
2018-06-30T02:02:28.814Z,14.90
2018-06-30T02:05:00.402Z,15.00
2018-06-30T02:07:32.098Z,14.80
2018-06-30T02:10:03.753Z,14.90
2018-06-30T02:12:35.480Z,15.10
2018-06-30T02:15:07.561Z,15.00
2018-06-30T02:17:39.224Z,14.80
2018-06-30T02:20:10.846Z,14.80
2018-06-30T02:22:42.589Z,14.70
2018-06-30T02:25:14.343Z,14.60
2018-06-30T02:27:45.988Z,14.60
2018-06-30T02:30:17.703Z,14.50
2018-06-30T02:32:49.366Z,14.70
2018-06-30T02:35:21.063Z,14.70
2018-06-30T02:37:52.787Z,14.60
2018-06-30T02:40:24.484Z,14.70
2018-06-30T02:42:56.246Z,14.70
2018-06-30T02:45:27.947Z,14.90
2018-06-30T02:47:59.708Z,15.00
2018-06-30T02:50:31.627Z,14.90
2018-06-30T02:53:03.365Z,14.80
2018-06-30T02:55:35.112Z,14.80
2018-06-30T02:58:06.806Z,14.80
2018-06-30T03:00:38.482Z,14.80
2018-06-30T03:03:10.230Z,14.90
2018-06-30T03:05:41.913Z,14.90
2018-06-30T03:08:13.563Z,14.80
2018-06-30T03:10:45.309Z,14.80
2018-06-30T03:13:17.026Z,14.80
2018-06-30T03:15:48.722Z,15.00
2018-06-30T03:18:20.415Z,15.10
2018-06-30T03:20:52.128Z,15.00
2018-06-30T03:23:24.047Z,15.20
2018-06-30T03:25:55.703Z,15.00
2018-06-30T03:28:27.303Z,14.90
2018-06-30T03:30:58.897Z,14.80
2018-06-30T03:33:30.563Z,14.90
2018-06-30T03:36:02.194Z,14.80
2018-06-30T03:38:33.914Z,14.90
2018-06-30T03:41:05.598Z,14.80
2018-06-30T03:43:37.202Z,14.80
2018-06-30T03:46:08.892Z,14.70
2018-06-30T03:48:40.545Z,14.60
2018-06-30T03:51:12.136Z,14.60
2018-06-30T03:53:43.869Z,14.70
2018-06-30T03:56:15.509Z,14.70
2018-06-30T03:58:47.237Z,14.90
2018-06-30T04:01:18.846Z,15.00
2018-06-30T04:03:50.458Z,14.90
2018-06-30T04:06:21.991Z,14.90
2018-06-30T04:08:53.637Z,14.80
2018-06-30T04:11:25.302Z,14.90
2018-06-30T04:13:57.218Z,14.90
2018-06-30T04:16:28.885Z,15.00
2018-06-30T04:19:06.722Z,15.10
2018-06-30T04:21:38.326Z,15.20
2018-06-30T04:24:10.053Z,15.40
2018-06-30T04:26:42.960Z,15.40
2018-06-30T04:29:14.982Z,15.20
2018-06-30T04:31:46.676Z,15.30
2018-06-30T04:34:18.402Z,15.30
2018-06-30T04:36:50.114Z,15.40
2018-06-30T04:39:21.794Z,15.40
2018-06-30T04:41:53.540Z,15.40
2018-06-30T04:44:25.243Z,15.50
2018-06-30T04:49:27.912Z,15.50
2018-06-30T04:51:59.550Z,15.30
2018-06-30T04:54:31.361Z,15.40
2018-06-30T04:57:03.046Z,15.40
2018-06-30T04:59:34.835Z,15.60
2018-06-30T05:02:06.545Z,15.80
2018-06-30T05:04:38.303Z,16.00
2018-06-30T05:07:10.669Z,16.00
2018-06-30T05:09:42.918Z,16.10
2018-06-30T05:12:14.603Z,16.10
2018-06-30T05:14:47.148Z,16.10
2018-06-30T05:17:19.609Z,16.10
2018-06-30T05:19:51.705Z,16.20
2018-06-30T05:22:24.169Z,16.20
2018-06-30T05:24:56.258Z,16.20
2018-06-30T05:27:28.814Z,16.20
2018-06-30T05:30:00.884Z,16.20
2018-06-30T05:32:32.966Z,16.10
2018-06-30T05:35:05.448Z,16.20
2018-06-30T05:37:37.874Z,16.20
2018-06-30T05:40:10.174Z,16.50
2018-06-30T05:42:42.017Z,16.40
2018-06-30T05:45:14.162Z,16.40
2018-06-30T05:47:46.002Z,16.50
2018-06-30T05:50:18.013Z,16.40
2018-06-30T05:52:49.698Z,16.50
2018-06-30T05:55:21.669Z,16.50
2018-06-30T05:57:54.167Z,16.60
2018-06-30T06:00:26.972Z,16.60
2018-06-30T06:02:58.658Z,16.70
2018-06-30T06:05:30.654Z,16.80
2018-06-30T06:08:02.651Z,16.90
2018-06-30T06:10:34.572Z,16.90
2018-06-30T06:13:06.405Z,16.90
2018-06-30T06:15:38.418Z,16.80
2018-06-30T06:18:11.294Z,17.00
2018-06-30T06:20:43.378Z,17.10
2018-06-30T06:23:15.345Z,17.20
2018-06-30T06:25:47.545Z,17.20
2018-06-30T06:28:19.761Z,17.20
2018-06-30T06:30:51.923Z,17.20
2018-06-30T06:33:24.111Z,17.30
2018-06-30T06:35:56.023Z,17.50
2018-06-30T06:38:28.894Z,17.50
2018-06-30T06:41:00.804Z,17.50
2018-06-30T06:43:32.884Z,17.60
2018-06-30T06:48:36.021Z,18.00
2018-06-30T06:51:08.235Z,18.10
2018-06-30T06:53:40.326Z,18.10
2018-06-30T06:56:12.151Z,18.10
2018-06-30T06:58:44.730Z,18.10
2018-06-30T07:01:17.206Z,18.30
2018-06-30T07:03:52.571Z,18.50
2018-06-30T07:06:25.177Z,18.60
2018-06-30T07:11:28.973Z,18.80
2018-06-30T07:14:00.956Z,18.90
2018-06-30T07:16:33.669Z,19.00
2018-06-30T07:19:05.755Z,19.10
2018-06-30T07:21:37.773Z,19.20
2018-06-30T07:24:09.622Z,19.30
2018-06-30T07:26:41.531Z,19.50
2018-06-30T07:29:13.450Z,19.70
2018-06-30T07:31:46.235Z,19.60
2018-06-30T07:34:18.226Z,19.80
2018-06-30T07:36:50.166Z,20.00
2018-06-30T07:39:25.125Z,20.10
2018-06-30T07:41:59.140Z,20.10
2018-06-30T07:44:31.450Z,20.20
2018-06-30T07:47:03.844Z,20.20
2018-06-30T07:49:35.750Z,20.40
2018-06-30T07:52:08.607Z,20.40
2018-06-30T07:54:40.454Z,20.50
2018-06-30T07:57:12.400Z,20.50
2018-06-30T07:59:46.625Z,20.60
2018-06-30T08:02:18.887Z,20.70
2018-06-30T08:04:51.496Z,20.70
2018-06-30T08:07:23.295Z,20.80
2018-06-30T08:09:55.202Z,21.00
2018-06-30T08:12:26.962Z,21.00
2018-06-30T08:14:58.862Z,21.20
2018-06-30T08:17:30.974Z,21.40
2018-06-30T08:20:02.886Z,21.30
2018-06-30T08:22:35.295Z,21.30
2018-06-30T08:25:07.366Z,21.40
2018-06-30T08:30:11.761Z,21.60
2018-06-30T08:32:43.771Z,21.70
2018-06-30T08:35:16.243Z,21.90
2018-06-30T08:37:48.257Z,21.90
2018-06-30T08:40:20.273Z,22.10
2018-06-30T08:42:52.556Z,22.20
2018-06-30T08:45:25.302Z,22.20
2018-06-30T08:47:57.508Z,22.40
2018-06-30T08:50:29.371Z,22.60
2018-06-30T08:53:01.268Z,22.70
2018-06-30T08:55:33.219Z,22.60
2018-06-30T08:58:05.573Z,22.70
2018-06-30T09:00:38.433Z,23.00
2018-06-30T09:05:42.094Z,22.80
2018-06-30T09:08:14.245Z,22.90
2018-06-30T09:10:46.070Z,23.00
2018-06-30T09:13:18.091Z,23.40
2018-06-30T09:15:49.930Z,23.40
2018-06-30T09:18:22.075Z,23.60
2018-06-30T09:20:54.085Z,23.60
2018-06-30T09:23:26.009Z,23.50
2018-06-30T09:25:57.979Z,23.60
2018-06-30T09:28:30.180Z,23.80
2018-06-30T09:31:02.259Z,23.80
2018-06-30T09:33:34.245Z,23.70
2018-06-30T09:36:06.405Z,23.60
2018-06-30T09:41:09.526Z,23.40
2018-06-30T09:43:41.526Z,23.80
2018-06-30T09:46:13.612Z,23.90
2018-06-30T09:48:45.771Z,23.80
2018-06-30T09:51:18.018Z,23.90
2018-06-30T09:53:50.173Z,24.50
2018-06-30T09:56:22.335Z,24.40
2018-06-30T09:58:54.722Z,24.40
2018-06-30T10:01:26.430Z,24.60
2018-06-30T10:03:58.412Z,24.90
2018-06-30T10:06:30.333Z,24.90
2018-06-30T10:09:02.447Z,24.70
2018-06-30T10:11:34.496Z,24.70
2018-06-30T10:14:06.646Z,24.60
2018-06-30T10:16:38.728Z,24.60
2018-06-30T10:19:10.848Z,24.80
2018-06-30T10:21:42.809Z,24.90
2018-06-30T10:24:15.043Z,24.70
2018-06-30T10:26:47.043Z,24.80
2018-06-30T10:29:19.131Z,24.80
2018-06-30T10:31:51.137Z,25.20
2018-06-30T10:34:23.213Z,25.10
2018-06-30T10:36:55.295Z,25.00
2018-06-30T10:41:58.771Z,25.00
2018-06-30T10:44:30.796Z,24.90
2018-06-30T10:47:03.047Z,25.00
2018-06-30T10:49:35.056Z,25.30
2018-06-30T10:52:07.131Z,25.40
2018-06-30T10:54:39.206Z,25.10
2018-06-30T10:57:11.215Z,25.30
2018-06-30T11:02:14.572Z,25.50
2018-06-30T11:04:46.574Z,25.50
2018-06-30T11:07:18.573Z,25.60
2018-06-30T11:09:50.808Z,25.70
2018-06-30T11:12:23.526Z,26.00
2018-06-30T11:14:55.752Z,25.80
2018-06-30T11:17:27.782Z,25.10
2018-06-30T11:19:59.924Z,24.40
2018-06-30T11:22:32.084Z,24.10
2018-06-30T11:25:04.019Z,24.00
2018-06-30T11:27:36.010Z,23.80
2018-06-30T11:30:08.096Z,23.80
2018-06-30T11:32:40.086Z,23.90
2018-06-30T11:35:12.086Z,24.40
2018-06-30T11:37:44.011Z,25.20
2018-06-30T11:40:15.983Z,25.70
2018-06-30T11:42:48.023Z,26.00
2018-06-30T11:45:19.933Z,26.20
2018-06-30T11:47:52.088Z,26.10
2018-06-30T11:50:24.120Z,26.10
2018-06-30T11:52:56.174Z,26.20
2018-06-30T11:55:28.253Z,26.30
2018-06-30T11:58:00.334Z,26.60
2018-06-30T12:00:32.258Z,26.70
2018-06-30T12:03:04.333Z,26.70
2018-06-30T12:05:36.309Z,26.40
2018-06-30T12:08:08.402Z,26.40
2018-06-30T12:10:40.495Z,26.60
2018-06-30T12:13:12.483Z,26.50
2018-06-30T12:15:44.486Z,26.80
2018-06-30T12:18:16.495Z,27.00
2018-06-30T12:20:48.655Z,27.10
2018-06-30T12:23:20.817Z,26.30
2018-06-30T12:25:52.978Z,25.20
2018-06-30T12:28:25.137Z,24.90
2018-06-30T12:30:57.449Z,24.80
2018-06-30T12:33:29.535Z,25.00
2018-06-30T12:36:01.689Z,25.80
2018-06-30T12:38:33.685Z,26.50
2018-06-30T12:41:05.610Z,26.80
2018-06-30T12:43:37.449Z,26.60
2018-06-30T12:46:09.857Z,26.00
2018-06-30T12:48:42.016Z,25.30
2018-06-30T12:51:14.014Z,25.10
2018-06-30T12:53:46.009Z,25.10
2018-06-30T12:56:18.094Z,25.60
2018-06-30T12:58:50.015Z,25.40
2018-06-30T13:01:22.173Z,25.30
2018-06-30T13:03:54.374Z,25.20
2018-06-30T13:06:26.252Z,25.00
2018-06-30T13:08:58.421Z,25.00
2018-06-30T13:11:31.213Z,25.30
2018-06-30T13:14:03.289Z,26.40
2018-06-30T13:16:36.405Z,27.00
2018-06-30T13:19:09.741Z,26.20
2018-06-30T13:21:42.012Z,26.00
2018-06-30T13:24:13.855Z,25.50
2018-06-30T13:26:46.094Z,25.00
2018-06-30T13:29:17.924Z,24.70
2018-06-30T13:31:50.091Z,24.60
2018-06-30T13:34:22.186Z,24.40
2018-06-30T13:36:54.170Z,24.60
2018-06-30T13:39:26.086Z,24.60
2018-06-30T13:41:58.069Z,24.70
2018-06-30T13:44:30.496Z,24.70
2018-06-30T13:47:02.413Z,25.40
2018-06-30T13:49:34.806Z,26.40
2018-06-30T13:52:07.298Z,26.70
2018-06-30T13:54:40.337Z,26.30
2018-06-30T13:57:12.488Z,27.00
2018-06-30T13:59:44.505Z,27.20
2018-06-30T14:02:16.655Z,27.40
2018-06-30T14:04:48.654Z,27.70
2018-06-30T14:07:20.974Z,27.80
2018-06-30T14:09:53.445Z,27.70
2018-06-30T14:12:25.687Z,27.60
2018-06-30T14:14:57.622Z,27.70
2018-06-30T14:17:29.931Z,27.70
2018-06-30T14:20:02.014Z,27.80
2018-06-30T14:22:33.917Z,28.00
2018-06-30T14:25:06.260Z,27.80
2018-06-30T14:27:38.356Z,28.00
2018-06-30T14:30:12.899Z,28.00
2018-06-30T14:32:45.528Z,27.90
2018-06-30T14:35:18.007Z,28.00
2018-06-30T14:37:50.495Z,27.90
2018-06-30T14:40:22.601Z,27.80
2018-06-30T14:42:54.973Z,26.80
2018-06-30T14:45:27.401Z,27.10
2018-06-30T14:47:59.447Z,26.20
2018-06-30T14:50:31.776Z,26.10
2018-06-30T14:53:03.774Z,26.90
2018-06-30T14:55:36.414Z,26.90
2018-06-30T14:58:09.286Z,27.00
2018-06-30T15:00:41.281Z,27.60
2018-06-30T15:03:13.684Z,27.30
2018-06-30T15:05:46.006Z,26.70
2018-06-30T15:08:18.334Z,27.20
2018-06-30T15:10:50.577Z,27.70
2018-06-30T15:13:22.891Z,28.50
2018-06-30T15:15:55.126Z,28.60
2018-06-30T15:18:27.381Z,28.30
2018-06-30T15:20:59.452Z,28.30
2018-06-30T15:23:31.615Z,28.10
2018-06-30T15:26:03.686Z,27.90
2018-06-30T15:28:35.849Z,27.00
2018-06-30T15:31:08.010Z,26.40
2018-06-30T15:33:40.005Z,26.70
2018-06-30T15:36:12.207Z,26.70
2018-06-30T15:38:44.257Z,26.20
2018-06-30T15:41:16.341Z,26.60
2018-06-30T15:43:48.433Z,27.50
2018-06-30T15:46:20.574Z,27.00
2018-06-30T15:48:52.642Z,26.50
2018-06-30T15:51:24.732Z,27.10
2018-06-30T15:53:56.934Z,27.60
2018-06-30T15:56:28.815Z,26.40
2018-06-30T15:59:00.774Z,25.70
2018-06-30T16:01:32.805Z,25.20
2018-06-30T16:04:04.728Z,25.20
2018-06-30T16:06:38.097Z,25.40
2018-06-30T16:09:12.574Z,25.60
2018-06-30T16:11:44.735Z,26.60
2018-06-30T16:14:17.363Z,27.10
2018-06-30T16:16:49.424Z,27.20
2018-06-30T16:19:21.443Z,27.50
2018-06-30T16:21:53.699Z,27.50
2018-06-30T16:24:25.865Z,27.30
2018-06-30T16:26:57.843Z,28.00
2018-06-30T16:29:30.022Z,28.30
2018-06-30T16:32:02.902Z,28.40
2018-06-30T16:34:35.371Z,28.00
2018-06-30T16:39:38.974Z,27.40
2018-06-30T16:42:11.051Z,27.70
2018-06-30T16:44:42.971Z,27.00
2018-06-30T16:47:15.262Z,27.20
2018-06-30T16:49:47.435Z,27.50
2018-06-30T16:52:19.686Z,27.40
2018-06-30T16:54:52.732Z,26.80
2018-06-30T16:57:24.736Z,26.80
2018-06-30T16:59:56.879Z,27.20
2018-06-30T17:02:29.538Z,27.00
2018-06-30T17:05:01.778Z,26.70
2018-06-30T17:07:33.691Z,26.70
2018-06-30T17:10:06.807Z,26.60
2018-06-30T17:12:38.829Z,26.10
2018-06-30T17:15:12.722Z,25.50
2018-06-30T17:17:45.283Z,24.90
2018-06-30T17:20:17.153Z,24.80
2018-06-30T17:22:49.031Z,24.80
2018-06-30T17:30:24.007Z,24.30
2018-06-30T17:32:56.257Z,24.10
2018-06-30T17:35:28.331Z,23.80
2018-06-30T17:40:31.854Z,24.00
2018-06-30T17:43:04.178Z,23.80
2018-06-30T17:45:36.060Z,23.60
2018-06-30T17:50:39.454Z,23.50
2018-06-30T17:53:12.251Z,23.60
2018-06-30T17:55:44.278Z,23.40
2018-06-30T17:58:16.483Z,23.30
2018-06-30T18:03:19.374Z,23.40
2018-06-30T18:05:51.522Z,23.30
2018-06-30T18:08:23.533Z,23.10
2018-06-30T18:10:55.360Z,23.10
2018-06-30T18:13:27.529Z,22.90
2018-06-30T18:15:59.857Z,23.00
2018-06-30T18:18:31.851Z,22.80
2018-06-30T18:21:03.771Z,23.00
2018-06-30T18:23:36.638Z,22.70
2018-06-30T18:26:08.581Z,22.80
2018-06-30T18:28:40.323Z,22.70
2018-06-30T18:36:16.566Z,22.40
2018-06-30T18:38:49.357Z,22.30
2018-06-30T18:41:21.694Z,22.40
2018-06-30T18:43:54.094Z,22.40
2018-06-30T18:46:26.245Z,22.40
2018-06-30T18:48:59.041Z,22.30
2018-06-30T18:51:30.897Z,22.10
2018-06-30T18:54:03.211Z,22.10
2018-06-30T18:56:35.053Z,21.90
2018-06-30T18:59:07.361Z,22.20
2018-06-30T19:01:39.830Z,22.00
2018-06-30T19:04:11.772Z,21.90
2018-06-30T19:06:43.850Z,21.70
2018-06-30T19:09:16.245Z,21.90
2018-06-30T19:11:48.122Z,21.70
2018-06-30T19:14:20.409Z,21.50
2018-06-30T19:19:23.919Z,21.50
2018-06-30T19:21:57.895Z,21.40
2018-06-30T19:24:30.094Z,21.20
2018-06-30T19:27:02.165Z,21.10
2018-06-30T19:29:34.165Z,21.20
2018-06-30T19:32:06.963Z,21.20
2018-06-30T19:34:38.809Z,21.30
2018-06-30T19:37:11.846Z,21.20
2018-06-30T19:39:43.841Z,21.00
2018-06-30T19:42:15.953Z,21.00
2018-06-30T19:44:47.873Z,21.10
2018-06-30T19:47:19.934Z,21.20
2018-06-30T19:49:51.849Z,21.20
2018-06-30T19:52:24.012Z,21.20
2018-06-30T19:54:56.330Z,21.20
2018-06-30T19:57:28.546Z,21.00
2018-06-30T20:00:00.545Z,20.90
2018-06-30T20:02:32.327Z,20.90
2018-06-30T20:05:04.346Z,21.00
2018-06-30T20:07:41.441Z,21.00
2018-06-30T20:10:14.246Z,21.00
2018-06-30T20:12:46.322Z,21.00
2018-06-30T20:15:18.411Z,21.00
2018-06-30T20:17:50.656Z,21.00
2018-06-30T20:20:23.207Z,20.80
2018-06-30T20:22:55.290Z,20.70
2018-06-30T20:25:27.640Z,20.70
2018-06-30T20:27:59.729Z,20.70
2018-06-30T20:30:31.935Z,20.70
2018-06-30T20:33:04.014Z,20.60
2018-06-30T20:35:35.959Z,20.70
2018-06-30T20:38:08.078Z,20.70
2018-06-30T20:40:40.249Z,20.50
2018-06-30T20:43:12.254Z,20.50
2018-06-30T20:45:45.694Z,20.50
2018-06-30T20:48:18.725Z,20.40
2018-06-30T20:50:51.168Z,20.30
2018-06-30T20:53:23.278Z,20.30
2018-06-30T20:55:55.856Z,20.10
2018-06-30T20:58:28.253Z,20.10
2018-06-30T21:01:00.652Z,20.10
2018-06-30T21:03:32.731Z,20.00
2018-06-30T21:06:04.966Z,19.90
2018-06-30T21:08:36.887Z,19.90
2018-06-30T21:13:40.346Z,20.00
2018-06-30T21:16:12.502Z,19.90
2018-06-30T21:18:45.125Z,19.80
2018-06-30T21:21:17.538Z,19.80
2018-06-30T21:23:49.609Z,19.70
2018-06-30T21:26:21.845Z,19.70
2018-06-30T21:28:54.005Z,19.50
2018-06-30T21:31:26.008Z,19.60
2018-06-30T21:33:58.182Z,19.40
2018-06-30T21:36:30.300Z,19.20
2018-06-30T21:39:02.414Z,19.10
2018-06-30T21:41:34.969Z,19.00
2018-06-30T21:44:07.213Z,19.00
2018-06-30T21:46:39.291Z,18.90
2018-06-30T21:49:11.385Z,18.90
2018-06-30T21:51:44.015Z,18.60
2018-06-30T21:54:16.131Z,18.60
2018-06-30T21:56:48.333Z,18.80
2018-06-30T21:59:20.146Z,18.50
2018-06-30T22:01:52.654Z,18.50
2018-06-30T22:04:24.894Z,18.40
2018-06-30T22:06:56.814Z,18.50
2018-06-30T22:09:28.891Z,18.70
2018-06-30T22:12:00.967Z,18.40
2018-06-30T22:14:33.442Z,18.50
2018-06-30T22:17:05.533Z,18.60
2018-06-30T22:19:37.447Z,18.50
2018-06-30T22:22:09.206Z,18.40
2018-06-30T22:24:41.290Z,18.60
2018-06-30T22:27:13.526Z,18.60
2018-06-30T22:29:45.530Z,18.30
2018-06-30T22:32:17.630Z,18.30
2018-06-30T22:34:49.929Z,18.00
2018-06-30T22:37:21.933Z,18.10
2018-06-30T22:40:10.496Z,18.20
2018-06-30T22:42:42.814Z,18.00
2018-06-30T22:45:15.686Z,18.00
2018-06-30T22:47:48.011Z,17.90
2018-06-30T22:50:20.494Z,17.90
2018-06-30T22:52:52.410Z,17.90
2018-06-30T22:55:24.339Z,17.80
2018-06-30T22:57:56.486Z,17.90
2018-06-30T23:00:29.047Z,18.00
2018-06-30T23:03:01.297Z,17.90
2018-06-30T23:05:33.539Z,17.90
2018-06-30T23:08:05.850Z,17.80
2018-06-30T23:10:38.166Z,17.70
2018-06-30T23:13:10.411Z,17.80
2018-06-30T23:15:42.650Z,17.70
2018-06-30T23:18:14.760Z,17.80
2018-06-30T23:20:47.057Z,17.50
2018-06-30T23:23:19.213Z,17.60
2018-06-30T23:25:51.135Z,17.70
2018-06-30T23:28:23.286Z,17.70
2018-06-30T23:30:55.367Z,17.40
2018-06-30T23:33:27.283Z,17.30
2018-06-30T23:35:59.696Z,17.30
2018-06-30T23:38:31.690Z,17.30
2018-06-30T23:41:03.691Z,17.20
2018-06-30T23:43:35.690Z,17.10
2018-06-30T23:46:07.941Z,17.00
2018-06-30T23:48:40.971Z,16.90
2018-06-30T23:51:13.290Z,17.00
2018-06-30T23:53:45.365Z,16.80
2018-06-30T23:56:17.291Z,16.90
2018-06-30T23:58:49.217Z,16.90
